Time;durP1;ratioP1;P1;durP2;ratioP2;P2;SDS_P1;SDS_P2;PMS_P1;PMS_P2;Temp;Humidity;BMP_temperature;BMP_pressure;BME280_temperature;BME280_humidity;BME280_pressure;Samples;Min_cycle;Max_cycle;Signal;HPM_P1;HPM_P2
2022/05/31 00:01:42;;;;;;;0.30;0.30;;;;;;;13.71;76.94;95085.25;4375567;32;20193;-58
2022/05/31 00:04:09;;;;;;;1.30;0.47;;;;;;;13.59;77.66;95087.78;4365336;32;20201;-58
2022/05/31 00:06:36;;;;;;;0.10;0.10;;;;;;;13.58;79.70;95083.56;4392535;32;20210;-58
2022/05/31 00:09:07;;;;;;;0.60;0.60;;;;;;;13.44;78.87;95077.63;4397930;32;20192;-59
2022/05/31 00:11:36;;;;;;;0.20;0.20;;;;;;;13.57;79.54;95084.66;4378842;32;20215;-58
2022/05/31 00:14:04;;;;;;;0.27;0.27;;;;;;;13.31;77.09;95081.25;4398646;32;20188;-57
2022/05/31 00:16:31;;;;;;;0.33;0.27;;;;;;;13.44;78.49;95077.63;4363778;32;20319;-58
2022/05/31 00:18:57;;;;;;;0.10;0.10;;;;;;;13.52;75.93;95082.16;4383120;32;20204;-59
2022/05/31 00:21:42;;;;;;;0.83;0.53;;;;;;;13.49;77.55;95077.47;4384280;32;20192;-59
2022/05/31 00:24:12;;;;;;;0.07;0.07;;;;;;;13.33;78.55;95087.81;4360970;32;20193;-58
2022/05/31 00:26:40;;;;;;;0.27;0.27;;;;;;;13.53;78.04;95078.38;4396901;32;20183;-58
2022/05/31 00:29:08;;;;;;;0.47;0.47;;;;;;;13.43;77.96;95081.41;4390325;32;20301;-59
2022/05/31 00:31:48;;;;;;;0.23;0.23;;;;;;;13.30;77.72;95087.69;4391210;32;20281;-58
2022/05/31 00:34:16;;;;;;;0.30;0.30;;;;;;;13.45;77.91;95078.41;4339399;32;20247;-59
2022/05/31 00:36:45;;;;;;;0.17;0.17;;;;;;;13.38;76.73;95079.69;4359052;32;20226;-58
2022/05/31 00:39:10;;;;;;;0.47;0.47;;;;;;;13.11;77.38;95081.88;4387258;32;20203;-58
2022/05/31 00:41:39;;;;;;;0.40;0.40;;;;;;;13.07;78.03;95079.84;4363849;32;20199;-58
2022/05/31 00:44:15;;;;;;;0.20;0.20;;;;;;;13.22;77.77;95078.59;4389106;32;20176;-58
2022/05/31 00:47:24;;;;;;;0.40;0.40;;;;;;;13.38;79.52;95086.88;4368984;32;20292;-58
2022/05/31 00:50:02;;;;;;;0.30;0.27;;;;;;;13.08;76.40;95084.09;4333478;32;20255;-57
2022/05/31 00:52:31;;;;;;;0.80;0.43;;;;;;;13.30;77.69;95082.38;4375447;32;20192;-58
2022/05/31 00:55:23;;;;;;;0.30;0.30;;;;;;;13.32;77.84;95083.59;4376270;32;20227;-59
2022/05/31 00:58:08;;;;;;;0.20;0.20;;;;;;;13.31;77.84;95084.69;4400711;32;20271;-58
2022/05/31 01:00:37;;;;;;;0.47;0.47;;;;;;;13.17;75.56;95081.44;4386136;32;20203;-58
2022/05/31 01:03:07;;;;;;;1.00;0.50;;;;;;;13.14;78.19;95076.69;4399372;32;20180;-58
2022/05/31 01:05:34;;;;;;;0.40;0.40;;;;;;;13.18;78.92;95079.56;4387072;32;20196;-58
2022/05/31 01:08:02;;;;;;;0.20;0.20;;;;;;;13.14;78.55;95082.03;4384815;32;20183;-58
2022/05/31 01:10:29;;;;;;;0.63;0.63;;;;;;;13.30;77.97;95077.03;4390252;32;20188;-58
2022/05/31 01:12:57;;;;;;;0.43;0.43;;;;;;;13.31;77.62;95076.69;4394001;32;20203;-59
2022/05/31 01:15:22;;;;;;;0.30;0.30;;;;;;;13.13;78.22;95071.69;4404901;32;20192;-59
2022/05/31 01:17:49;;;;;;;0.30;0.30;;;;;;;13.15;76.76;95077.47;4376886;32;20335;-58
2022/05/31 01:20:20;;;;;;;0.20;0.20;;;;;;;13.04;78.24;95072.50;4395128;32;20240;-59
2022/05/31 01:22:54;;;;;;;0.00;0.00;;;;;;;13.07;76.96;95077.19;4367737;32;20334;-59
2022/05/31 01:25:41;;;;;;;0.73;0.27;;;;;;;12.92;76.61;95074.19;4370060;32;20203;-58
2022/05/31 01:28:45;;;;;;;0.10;0.10;;;;;;;13.05;79.10;95081.25;4400348;32;20218;-58
2022/05/31 01:31:27;;;;;;;0.40;0.40;;;;;;;12.83;79.33;95079.53;4391679;32;20180;-58
2022/05/31 01:34:28;;;;;;;0.20;0.20;;;;;;;12.69;77.12;95079.69;4396175;32;20251;-58
2022/05/31 01:36:57;;;;;;;0.20;0.20;;;;;;;12.95;78.31;95074.38;4369758;32;20188;-58
2022/05/31 01:39:45;;;;;;;0.10;0.10;;;;;;;12.95;79.02;95069.03;4369647;32;20200;-58
2022/05/31 01:42:22;;;;;;;0.27;0.27;;;;;;;12.98;76.29;95057.75;4356095;32;20189;-57
2022/05/31 01:44:53;;;;;;;0.30;0.30;;;;;;;12.53;76.17;95064.47;4402763;32;20270;-58
2022/05/31 01:47:23;;;;;;;0.20;0.20;;;;;;;12.67;79.65;95057.16;4373178;32;20189;-58
2022/05/31 01:49:53;;;;;;;0.40;0.40;;;;;;;12.77;79.41;95053.38;4375930;32;20266;-58
2022/05/31 01:52:31;;;;;;;0.50;0.50;;;;;;;12.80;78.04;95044.78;4387536;32;20288;-59
2022/05/31 01:54:58;;;;;;;0.00;0.00;;;;;;;12.65;78.82;95043.38;4373456;32;20188;-58
2022/05/31 01:57:24;;;;;;;0.37;0.37;;;;;;;12.96;79.37;95048.53;4390961;32;20195;-58
2022/05/31 02:00:14;;;;;;;0.20;0.20;;;;;;;13.19;77.49;95038.50;4389109;32;20202;-58
2022/05/31 02:02:42;;;;;;;0.20;0.20;;;;;;;13.05;78.28;95044.75;4364856;32;20189;-58
2022/05/31 02:05:09;;;;;;;1.20;0.40;;;;;;;13.02;77.45;95045.38;4358059;32;20180;-58
2022/05/31 02:07:35;;;;;;;0.10;0.10;;;;;;;13.09;77.92;95036.94;4401064;32;20176;-58
2022/05/31 02:10:02;;;;;;;0.57;0.57;;;;;;;12.65;76.22;95044.16;4386296;32;20289;-59
2022/05/31 02:12:33;;;;;;;0.33;0.33;;;;;;;12.58;77.49;95041.16;4380753;32;20260;-59
2022/05/31 02:15:00;;;;;;;0.40;0.40;;;;;;;12.33;77.48;95036.59;4396268;32;20187;-58
2022/05/31 02:17:28;;;;;;;0.73;0.70;;;;;;;12.54;81.04;95042.88;4391412;32;20176;-59
2022/05/31 02:19:55;;;;;;;0.47;0.47;;;;;;;12.42;78.45;95045.38;4391260;32;20199;-58
2022/05/31 02:22:26;;;;;;;0.27;0.27;;;;;;;12.58;79.33;95043.03;4401583;32;20204;-58
2022/05/31 02:24:52;;;;;;;0.50;0.30;;;;;;;12.49;79.69;95039.59;4366166;32;20292;-58
2022/05/31 02:27:19;;;;;;;0.30;0.30;;;;;;;12.69;78.46;95041.63;4382852;32;20295;-59
2022/05/31 02:29:46;;;;;;;0.00;0.00;;;;;;;12.60;78.38;95046.19;4377584;32;20225;-59
2022/05/31 02:32:13;;;;;;;0.10;0.10;;;;;;;12.91;79.69;95044.13;4375262;32;20254;-59
2022/05/31 02:34:46;;;;;;;0.00;0.00;;;;;;;12.91;78.36;95046.78;4377678;32;20184;-58
2022/05/31 02:37:14;;;;;;;0.73;0.63;;;;;;;12.90;76.94;95047.88;4396098;32;20235;-59
2022/05/31 02:39:40;;;;;;;0.40;0.40;;;;;;;12.81;79.42;95052.44;4399671;32;20262;-58
2022/05/31 02:42:09;;;;;;;0.30;0.30;;;;;;;13.04;79.47;95056.50;4377884;32;20271;-58
2022/05/31 02:44:36;;;;;;;0.03;0.03;;;;;;;12.95;78.91;95042.41;4387473;32;20188;-58
2022/05/31 02:47:04;;;;;;;0.33;0.10;;;;;;;12.82;77.49;95058.56;4367823;32;20192;-58
2022/05/31 02:49:30;;;;;;;0.03;0.03;;;;;;;12.95;77.76;95063.72;4388268;32;20198;-58
2022/05/31 02:52:00;;;;;;;0.40;0.40;;;;;;;13.08;78.04;95065.44;4381279;32;20256;-59
2022/05/31 02:54:27;;;;;;;0.40;0.40;;;;;;;12.56;78.73;95061.97;4389710;32;20229;-59
2022/05/31 02:56:53;;;;;;;0.10;0.10;;;;;;;12.89;78.12;95061.50;4369541;32;20196;-58
2022/05/31 02:59:19;;;;;;;0.97;0.63;;;;;;;13.03;77.51;95065.59;4371275;32;20321;-59
2022/05/31 03:01:49;;;;;;;0.33;0.33;;;;;;;12.65;79.74;95070.78;4376620;32;20242;-59
2022/05/31 03:04:19;;;;;;;0.40;0.40;;;;;;;12.97;78.31;95064.19;4363234;32;20200;-58
2022/05/31 03:06:46;;;;;;;9.10;0.53;;;;;;;12.83;77.82;95073.44;4396939;32;20231;-58
2022/05/31 03:09:13;;;;;;;0.13;0.13;;;;;;;13.20;77.53;95064.81;4382727;32;20235;-59
2022/05/31 03:12:08;;;;;;;0.23;0.20;;;;;;;13.13;77.95;95074.34;4406018;32;20192;-58
2022/05/31 03:14:46;;;;;;;0.30;0.30;;;;;;;13.09;78.50;95072.31;4368977;32;20204;-58
2022/05/31 03:17:18;;;;;;;0.67;0.30;;;;;;;13.09;77.55;95068.91;4390893;32;20215;-59
2022/05/31 03:19:50;;;;;;;0.23;0.23;;;;;;;12.87;78.14;95080.50;4389453;32;20241;-59
2022/05/31 03:22:25;;;;;;;0.10;0.10;;;;;;;13.04;77.51;95072.50;4387957;32;20321;-59
2022/05/31 03:25:04;;;;;;;0.13;0.13;;;;;;;13.16;77.86;95071.09;4380608;32;20205;-57
2022/05/31 03:27:30;;;;;;;0.47;0.37;;;;;;;13.24;77.43;95068.44;4369129;32;20206;-58
2022/05/31 03:30:00;;;;;;;0.30;0.30;;;;;;;13.11;75.95;95077.31;4374431;32;20211;-58
2022/05/31 03:32:27;;;;;;;0.53;0.53;;;;;;;12.96;78.43;95075.94;4399441;32;20184;-59
2022/05/31 03:34:54;;;;;;;0.23;0.23;;;;;;;13.04;78.21;95077.03;4374362;32;20241;-58
2022/05/31 03:37:20;;;;;;;0.20;0.20;;;;;;;12.82;77.47;95071.88;4378182;32;20206;-57
2022/05/31 03:39:47;;;;;;;0.30;0.30;;;;;;;12.99;78.01;95072.66;4401320;32;20323;-58
2022/05/31 03:42:15;;;;;;;0.93;0.47;;;;;;;13.05;77.75;95067.94;4370272;32;20232;-58
2022/05/31 03:44:42;;;;;;;0.27;0.27;;;;;;;12.99;77.13;95075.31;4385776;32;20228;-58
2022/05/31 03:47:07;;;;;;;0.20;0.20;;;;;;;12.90;78.16;95074.50;4368584;32;20203;-59
2022/05/31 03:49:35;;;;;;;0.50;0.50;;;;;;;13.06;77.78;95080.94;4386913;32;20205;-58
2022/05/31 03:52:03;;;;;;;0.30;0.30;;;;;;;12.83;77.28;95076.09;4348944;32;20234;-58
2022/05/31 03:54:28;;;;;;;0.20;0.20;;;;;;;12.65;79.14;95080.62;4383583;32;20196;-58
2022/05/31 03:56:54;;;;;;;0.37;0.37;;;;;;;12.71;78.63;95077.47;4369808;32;20203;-58
2022/05/31 03:59:19;;;;;;;0.10;0.10;;;;;;;12.70;79.63;95072.47;4357506;32;20180;-58
2022/05/31 04:01:48;;;;;;;0.10;0.10;;;;;;;12.53;79.18;95073.25;4382525;32;20264;-58
2022/05/31 04:04:14;;;;;;;0.30;0.30;;;;;;;12.93;78.36;95067.78;4362423;32;20208;-58
2022/05/31 04:06:44;;;;;;;0.20;0.20;;;;;;;13.06;77.11;95064.97;4392277;32;20188;-58
2022/05/31 04:09:09;;;;;;;0.13;0.13;;;;;;;12.68;78.17;95070.13;4369771;32;20184;-58
2022/05/31 04:11:36;;;;;;;0.10;0.10;;;;;;;12.96;79.05;95070.59;4374944;32;20217;-59
2022/05/31 04:14:01;;;;;;;0.10;0.10;;;;;;;12.67;78.80;95081.09;4394455;32;20254;-58
2022/05/31 04:16:27;;;;;;;0.30;0.30;;;;;;;12.78;78.25;95085.00;4384299;32;20256;-58
2022/05/31 04:18:55;;;;;;;0.40;0.30;;;;;;;13.04;78.24;95080.47;4397122;32;20196;-58
2022/05/31 04:21:21;;;;;;;0.20;0.20;;;;;;;13.17;78.50;95084.09;4392427;32;20184;-59
2022/05/31 04:24:02;;;;;;;0.37;0.37;;;;;;;13.44;77.61;95079.53;4382039;32;20243;-58
2022/05/31 04:26:32;;;;;;;0.20;0.20;;;;;;;13.43;76.98;95091.28;4384019;32;20253;-59
2022/05/31 04:28:58;;;;;;;0.90;0.53;;;;;;;13.47;76.52;95090.34;4385039;32;20211;-59
2022/05/31 04:31:25;;;;;;;0.20;0.20;;;;;;;13.54;77.74;95095.94;4390093;32;20195;-58
2022/05/31 04:33:53;;;;;;;0.20;0.20;;;;;;;13.59;77.97;95093.13;4359713;32;20238;-58
2022/05/31 04:36:21;;;;;;;0.33;0.33;;;;;;;13.65;78.46;95102.50;4349546;32;20263;-59
2022/05/31 04:38:48;;;;;;;0.97;0.97;;;;;;;13.70;78.13;95105.03;4388006;32;20314;-59
2022/05/31 04:41:26;;;;;;;1.23;0.53;;;;;;;13.85;76.31;95101.03;4386829;32;20192;-59
2022/05/31 04:43:53;;;;;;;0.40;0.40;;;;;;;13.61;76.48;95101.56;4387101;32;20206;-59
2022/05/31 04:46:22;;;;;;;0.33;0.33;;;;;;;13.43;77.99;95105.38;4383779;32;20315;-58
2022/05/31 04:48:56;;;;;;;0.67;0.67;;;;;;;13.56;78.49;95099.06;4371178;32;20260;-58
2022/05/31 04:51:24;;;;;;;7.83;0.70;;;;;;;13.58;76.26;95107.53;4365694;32;20274;-58
2022/05/31 04:53:50;;;;;;;0.20;0.20;;;;;;;13.19;77.88;95105.09;4374527;32;20268;-59
2022/05/31 04:56:19;;;;;;;1.20;1.10;;;;;;;13.41;76.77;95111.03;4361140;32;20284;-59
2022/05/31 04:58:48;;;;;;;0.77;0.40;;;;;;;13.58;76.89;95107.53;4382558;32;20276;-58
2022/05/31 05:01:14;;;;;;;2.13;0.40;;;;;;;13.36;75.56;95115.72;4374634;32;20243;-59
2022/05/31 05:03:44;;;;;;;1.33;0.80;;;;;;;13.49;80.91;95112.12;4389291;32;20172;-58
2022/05/31 05:06:13;;;;;;;1.37;0.77;;;;;;;13.09;79.21;95103.50;4383649;32;20202;-59
2022/05/31 05:08:38;;;;;;;0.47;0.47;;;;;;;12.92;79.15;95111.47;4375828;32;20184;-59
2022/05/31 05:11:09;;;;;;;0.77;0.43;;;;;;;13.28;79.23;95111.22;4371288;32;20305;-58
2022/05/31 05:13:41;;;;;;;0.30;0.30;;;;;;;13.52;78.81;95098.13;4379311;32;20240;-59
2022/05/31 05:16:12;;;;;;;0.30;0.30;;;;;;;13.45;78.27;95097.06;4398485;32;20235;-57
2022/05/31 05:18:38;;;;;;;2.90;1.20;;;;;;;13.18;77.12;95108.84;4371019;32;20255;-58
2022/05/31 05:21:10;;;;;;;0.33;0.33;;;;;;;13.48;78.31;95109.78;4356605;32;20286;-58
2022/05/31 05:23:37;;;;;;;0.77;0.50;;;;;;;13.20;76.36;95117.31;4359792;32;20184;-59
2022/05/31 05:26:11;;;;;;;0.60;0.60;;;;;;;13.51;79.00;95117.13;4386775;32;20207;-58
2022/05/31 05:31:32;;;;;;;1.20;0.80;;;;;;;13.50;76.85;95107.56;4357862;32;20199;-58
2022/05/31 05:34:03;;;;;;;0.50;0.50;;;;;;;13.62;77.30;95103.16;4357079;32;20262;-59
2022/05/31 05:36:29;;;;;;;0.60;0.47;;;;;;;13.68;75.58;95107.22;4361919;32;20188;-58
2022/05/31 05:38:55;;;;;;;0.20;0.20;;;;;;;13.43;77.58;95117.91;4388338;32;20295;-58
2022/05/31 05:41:24;;;;;;;3.60;0.70;;;;;;;13.79;77.58;95112.19;4376117;32;20240;-58
2022/05/31 05:43:51;;;;;;;0.67;0.67;;;;;;;13.79;76.89;95107.66;4362040;32;20279;-58
2022/05/31 05:46:28;;;;;;;0.50;0.50;;;;;;;13.89;76.22;95106.53;4377461;32;20269;-58
2022/05/31 05:48:55;;;;;;;0.13;0.13;;;;;;;14.00;76.61;95110.41;4397239;32;20188;-58
2022/05/31 05:51:26;;;;;;;0.37;0.37;;;;;;;14.12;76.59;95115.06;4375192;32;20260;-58
2022/05/31 05:53:56;;;;;;;3.50;2.53;;;;;;;14.25;75.80;95114.84;4367337;32;20189;-58
2022/05/31 05:56:25;;;;;;;0.40;0.40;;;;;;;14.09;76.05;95113.81;4385521;32;20233;-59
2022/05/31 05:58:50;;;;;;;0.13;0.10;;;;;;;14.34;75.87;95120.91;4374917;32;20192;-59
2022/05/31 06:01:34;;;;;;;0.20;0.20;;;;;;;14.40;75.03;95116.19;4385032;32;20288;-59
2022/05/31 06:04:29;;;;;;;0.60;0.60;;;;;;;14.16;73.05;95116.75;4362060;32;20192;-58
2022/05/31 06:07:21;;;;;;;0.63;0.60;;;;;;;14.39;75.11;95120.72;4401040;32;20256;-58
2022/05/31 06:09:58;;;;;;;6.83;1.13;;;;;;;14.56;74.82;95119.09;4368714;32;20195;-58
2022/05/31 06:12:31;;;;;;;13.13;2.33;;;;;;;14.61;75.98;95124.25;4315618;32;20189;-58
2022/05/31 06:15:06;;;;;;;5.77;1.47;;;;;;;14.89;75.41;95113.88;4339338;32;20275;-59
2022/05/31 06:17:39;;;;;;;0.67;0.67;;;;;;;14.82;71.34;95110.94;4365908;32;20282;-59
2022/05/31 06:20:08;;;;;;;1.57;1.03;;;;;;;15.05;71.27;95114.84;4371683;32;20260;-59
2022/05/31 06:22:36;;;;;;;0.33;0.33;;;;;;;15.22;70.32;95124.63;4401581;32;20252;-58
2022/05/31 06:25:02;;;;;;;2.10;0.97;;;;;;;15.30;70.63;95126.44;4401483;32;20227;-59
2022/05/31 06:27:28;;;;;;;0.63;0.63;;;;;;;15.36;71.34;95136.63;4395203;32;20196;-59
2022/05/31 06:29:55;;;;;;;0.57;0.57;;;;;;;15.39;69.56;95138.59;4386201;32;20242;-60
2022/05/31 06:32:21;;;;;;;1.07;0.90;;;;;;;15.20;68.40;95132.97;4363192;32;20219;-60
2022/05/31 06:34:49;;;;;;;0.80;0.80;;;;;;;15.30;71.15;95118.44;4364307;32;20346;-59
2022/05/31 06:37:19;;;;;;;1.03;0.70;;;;;;;15.18;71.61;95103.09;4406197;32;20188;-60
2022/05/31 06:39:46;;;;;;;1.90;0.70;;;;;;;15.19;70.16;95109.22;4377511;32;20184;-60
2022/05/31 06:42:12;;;;;;;1.83;0.73;;;;;;;15.31;70.60;95107.41;4332785;32;20177;-59
2022/05/31 06:44:42;;;;;;;0.43;0.43;;;;;;;15.46;71.50;95106.78;4358742;32;20222;-59
2022/05/31 06:47:09;;;;;;;2.03;0.67;;;;;;;15.59;69.91;95112.97;4394208;32;20203;-60
2022/05/31 06:49:36;;;;;;;0.27;0.27;;;;;;;15.64;66.81;95110.09;4381859;32;20210;-60
2022/05/31 06:57:42;;;;;;;0.53;0.50;;;;;;;15.88;66.43;95106.72;4374379;32;20195;-59
2022/05/31 07:00:14;;;;;;;0.67;0.57;;;;;;;16.03;66.31;95102.59;4377024;32;20184;-60
2022/05/31 07:02:41;;;;;;;0.37;0.37;;;;;;;16.02;66.82;95101.81;4363540;32;20325;-59
2022/05/31 07:05:10;;;;;;;0.47;0.47;;;;;;;15.95;62.06;95106.16;4396121;32;20208;-60
2022/05/31 07:07:37;;;;;;;0.30;0.30;;;;;;;16.09;62.35;95104.72;4403213;32;20192;-59
2022/05/31 07:10:03;;;;;;;0.30;0.30;;;;;;;16.38;62.62;95101.06;4388490;32;20195;-59
2022/05/31 07:12:30;;;;;;;0.87;0.87;;;;;;;16.61;61.38;95108.66;4395749;32;20196;-60
2022/05/31 07:15:08;;;;;;;0.40;0.40;;;;;;;16.71;63.19;95100.97;4367214;32;20191;-61
2022/05/31 07:17:33;;;;;;;0.30;0.30;;;;;;;16.87;61.91;95101.03;4379878;32;20273;-59
2022/05/31 07:20:01;;;;;;;0.57;0.57;;;;;;;16.86;62.83;95104.03;4368230;32;20195;-60
2022/05/31 07:22:28;;;;;;;0.33;0.33;;;;;;;16.85;61.41;95111.31;4367116;32;20192;-60
2022/05/31 07:24:55;;;;;;;0.10;0.10;;;;;;;16.74;63.96;95112.91;4352755;32;20268;-60
2022/05/31 07:27:21;;;;;;;0.97;0.97;;;;;;;16.78;62.15;95105.75;4358080;32;20192;-59
2022/05/31 07:29:47;;;;;;;0.43;0.43;;;;;;;16.86;64.51;95104.81;4373138;32;20202;-60
2022/05/31 07:32:13;;;;;;;0.30;0.30;;;;;;;16.66;62.51;95101.19;4371352;32;20247;-59
2022/05/31 07:34:40;;;;;;;0.13;0.13;;;;;;;16.75;62.96;95101.06;4367640;32;20216;-59
2022/05/31 07:37:10;;;;;;;0.30;0.30;;;;;;;16.76;63.39;95103.41;4358151;32;20198;-61
2022/05/31 07:39:38;;;;;;;0.30;0.30;;;;;;;16.79;60.86;95102.75;4370822;32;20187;-60
2022/05/31 07:42:05;;;;;;;0.50;0.50;;;;;;;16.95;61.53;95102.81;4338413;32;20223;-61
2022/05/31 07:44:32;;;;;;;0.93;0.93;;;;;;;17.06;62.13;95092.37;4393355;32;20198;-60
2022/05/31 07:47:02;;;;;;;0.17;0.17;;;;;;;17.16;64.53;95092.69;4402695;32;20184;-60
2022/05/31 07:49:29;;;;;;;0.50;0.50;;;;;;;17.31;62.56;95095.78;4397218;32;20200;-62
2022/05/31 07:51:54;;;;;;;0.10;0.10;;;;;;;17.26;61.56;95094.09;4390175;32;20202;-60
2022/05/31 07:54:21;;;;;;;0.20;0.20;;;;;;;17.55;61.74;95093.00;4385746;32;20188;-60
2022/05/31 07:56:49;;;;;;;0.20;0.20;;;;;;;17.56;60.91;95097.22;4387378;32;20297;-60
2022/05/31 07:59:17;;;;;;;0.30;0.30;;;;;;;17.72;59.89;95097.28;4366673;32;20196;-60
2022/05/31 08:01:44;;;;;;;0.20;0.20;;;;;;;18.00;58.65;95081.12;4365615;32;20287;-60
2022/05/31 08:04:10;;;;;;;0.57;0.17;;;;;;;17.89;55.27;95085.44;4398263;32;20192;-61
2022/05/31 08:06:37;;;;;;;0.37;0.37;;;;;;;17.98;55.97;95091.44;4388592;32;20211;-61
2022/05/31 08:09:04;;;;;;;0.10;0.10;;;;;;;18.08;55.44;95099.75;4354702;32;20263;-61
2022/05/31 08:11:33;;;;;;;0.10;0.10;;;;;;;17.96;55.06;95093.69;4386750;32;20245;-61
2022/05/31 08:14:01;;;;;;;0.33;0.33;;;;;;;18.10;55.15;95094.03;4375172;32;20201;-60
2022/05/31 08:16:28;;;;;;;0.10;0.10;;;;;;;17.99;52.34;95090.31;4378727;32;20222;-59
2022/05/31 08:18:59;;;;;;;0.30;0.30;;;;;;;17.87;53.30;95083.88;4378955;32;20189;-60
2022/05/31 08:21:30;;;;;;;0.10;0.10;;;;;;;17.89;54.82;95080.06;4325158;32;20197;-60
2022/05/31 08:24:02;;;;;;;0.40;0.40;;;;;;;18.15;57.13;95083.03;4374434;32;20206;-59
2022/05/31 08:26:29;;;;;;;0.20;0.20;;;;;;;18.14;54.15;95087.63;4376809;32;20200;-60
2022/05/31 08:28:56;;;;;;;0.20;0.20;;;;;;;18.19;55.17;95083.91;4370051;32;20189;-60
2022/05/31 08:31:31;;;;;;;0.20;0.20;;;;;;;18.31;56.60;95078.44;4333936;32;20205;-60
2022/05/31 08:33:59;;;;;;;0.37;0.37;;;;;;;18.08;54.75;95069.44;4382656;32;20208;-61
2022/05/31 08:36:25;;;;;;;0.27;0.27;;;;;;;18.13;55.08;95069.16;4407269;32;20188;-60
2022/05/31 08:38:51;;;;;;;0.60;0.30;;;;;;;18.21;55.28;95073.59;4392368;32;20180;-60
2022/05/31 08:41:47;;;;;;;0.07;0.07;;;;;;;18.09;54.98;95071.75;4371359;32;20303;-61
2022/05/31 08:44:36;;;;;;;1.90;0.30;;;;;;;18.19;54.90;95067.78;4372391;32;20198;-60
2022/05/31 08:47:59;;;;;;;0.23;0.23;;;;;;;18.14;55.83;95065.38;4381208;32;20232;-58
2022/05/31 08:53:30;;;;;;;0.30;0.30;;;;;;;18.12;54.47;95059.56;4381831;32;20215;-60
2022/05/31 08:59:10;;;;;;;3.70;0.40;;;;;;;18.27;56.41;95042.69;4379149;32;20214;-60
2022/05/31 09:01:52;;;;;;;0.10;0.10;;;;;;;18.32;54.64;95045.06;4366099;32;20245;-60
2022/05/31 09:04:45;;;;;;;0.10;0.10;;;;;;;18.29;54.37;95053.06;4344384;32;20203;-60
2022/05/31 09:07:27;;;;;;;0.13;0.13;;;;;;;18.29;55.35;95056.50;4357993;32;20199;-60
2022/05/31 09:10:05;;;;;;;0.20;0.20;;;;;;;18.31;56.55;95051.56;4379399;32;20191;-65
2022/05/31 09:12:53;;;;;;;0.23;0.23;;;;;;;18.43;54.96;95051.47;4330849;32;20179;-61
2022/05/31 09:16:07;;;;;;;0.30;0.30;;;;;;;18.39;54.19;95047.16;4356761;32;20185;-62
2022/05/31 09:18:57;;;;;;;0.40;0.37;;;;;;;18.47;53.97;95048.88;4358259;32;20232;-61
2022/05/31 09:21:41;;;;;;;0.00;0.00;;;;;;;18.59;53.19;95042.59;4382598;32;20212;-61
2022/05/31 09:24:19;;;;;;;0.27;0.27;;;;;;;18.62;52.23;95047.31;4353350;32;20241;-60
2022/05/31 09:26:51;;;;;;;2.80;2.60;;;;;;;18.59;52.67;95048.78;4355286;32;20208;-59
2022/05/31 09:29:23;;;;;;;0.93;0.93;;;;;;;18.79;52.68;95038.84;4332563;32;20272;-61
2022/05/31 09:32:04;;;;;;;0.37;0.37;;;;;;;18.80;52.67;95037.72;4377328;32;20274;-61
2022/05/31 09:34:59;;;;;;;0.20;0.20;;;;;;;18.83;52.27;95037.78;4364898;32;20199;-60
2022/05/31 09:38:02;;;;;;;0.30;0.30;;;;;;;18.91;52.33;95041.41;4375630;32;20192;-60
2022/05/31 09:40:47;;;;;;;0.60;0.60;;;;;;;19.01;49.22;95037.38;4352849;32;20242;-59
2022/05/31 09:43:38;;;;;;;0.40;0.40;;;;;;;19.03;50.62;95043.97;4378616;32;20235;-58
2022/05/31 09:46:16;;;;;;;0.20;0.20;;;;;;;19.15;52.64;95043.03;4388675;32;20180;-61
2022/05/31 09:48:48;;;;;;;0.40;0.40;;;;;;;19.29;52.19;95037.16;4377930;32;20192;-61
2022/05/31 09:51:24;;;;;;;0.20;0.20;;;;;;;19.40;51.91;95027.38;4374641;32;20219;-60
2022/05/31 09:59:24;;;;;;;0.50;0.50;;;;;;;19.67;49.78;95020.97;4389309;32;20250;-59
2022/05/31 10:01:51;;;;;;;0.10;0.10;;;;;;;19.82;49.81;95017.38;4382097;32;20232;-60
2022/05/31 10:04:29;;;;;;;0.37;0.37;;;;;;;19.98;50.52;95019.16;4381549;32;20294;-60
2022/05/31 10:07:07;;;;;;;0.50;0.40;;;;;;;19.96;48.54;95016.03;4378449;32;20202;-60
2022/05/31 10:09:36;;;;;;;0.30;0.30;;;;;;;20.05;50.56;95013.91;4393745;32;20200;-60
2022/05/31 10:12:21;;;;;;;0.40;0.40;;;;;;;20.09;49.36;95017.44;4399370;32;20191;-59
2022/05/31 10:14:50;;;;;;;0.20;0.20;;;;;;;20.16;51.01;95009.47;4391745;32;20275;-59
2022/05/31 10:17:32;;;;;;;0.43;0.43;;;;;;;20.24;51.29;95013.81;4396306;32;20184;-59
2022/05/31 10:20:21;;;;;;;0.10;0.10;;;;;;;20.39;48.92;95007.50;4392416;32;20188;-59
2022/05/31 10:23:15;;;;;;;0.30;0.30;;;;;;;20.18;49.61;95009.84;4405884;32;20231;-59
2022/05/31 10:25:52;;;;;;;1.60;0.80;;;;;;;20.40;52.14;95008.28;4399078;32;20180;-60
2022/05/31 10:28:30;;;;;;;0.87;0.63;;;;;;;20.49;51.54;95011.50;4383067;32;20203;-59
2022/05/31 10:31:09;;;;;;;0.73;0.73;;;;;;;20.48;47.94;95001.87;4399558;32;20188;-59
2022/05/31 10:33:34;;;;;;;0.60;0.60;;;;;;;20.37;50.38;94999.00;4385848;32;20188;-59
2022/05/31 10:36:19;;;;;;;0.63;0.63;;;;;;;20.50;51.99;94989.59;4393190;32;20202;-59
2022/05/31 10:38:47;;;;;;;0.20;0.20;;;;;;;20.49;50.15;94990.72;4386479;32;20203;-60
2022/05/31 10:41:30;;;;;;;0.10;0.10;;;;;;;20.40;50.37;94981.34;4387345;32;20254;-59
2022/05/31 10:44:21;;;;;;;0.20;0.20;;;;;;;20.37;48.22;94988.22;4380251;32;20225;-59
2022/05/31 10:46:51;;;;;;;0.30;0.30;;;;;;;20.30;48.06;94977.34;4399715;32;20320;-60
2022/05/31 10:49:20;;;;;;;0.20;0.20;;;;;;;20.27;47.00;94966.50;4397308;32;20259;-60
2022/05/31 10:51:45;;;;;;;0.57;0.57;;;;;;;20.20;48.76;94967.94;4383591;32;20181;-59
2022/05/31 10:54:29;;;;;;;0.27;0.27;;;;;;;20.24;47.93;94970.69;4401531;32;20198;-60
2022/05/31 10:57:04;;;;;;;0.10;0.10;;;;;;;20.38;50.93;94972.84;4398155;32;20188;-59
2022/05/31 10:59:52;;;;;;;0.50;0.50;;;;;;;20.39;49.90;94967.09;4384514;32;20179;-59
2022/05/31 11:02:43;;;;;;;0.40;0.40;;;;;;;20.53;51.03;94964.59;4385394;32;20249;-59
2022/05/31 11:05:14;;;;;;;2.27;0.50;;;;;;;20.56;49.32;94963.87;4399350;32;20218;-59
2022/05/31 11:14:12;;;;;;;0.53;0.53;;;;;;;20.67;50.59;94947.03;4394421;32;20215;-60
2022/05/31 11:16:42;;;;;;;0.47;0.47;;;;;;;20.67;51.05;94942.44;4395161;32;20184;-60
2022/05/31 11:19:29;;;;;;;0.30;0.30;;;;;;;20.75;50.65;94946.00;4400965;32;20211;-59
2022/05/31 11:22:04;;;;;;;0.10;0.10;;;;;;;20.95;51.09;94952.00;4374663;32;20204;-58
2022/05/31 11:29:52;;;;;;;1.80;0.70;;;;;;;21.05;48.94;94951.34;4329819;32;20239;-61
2022/05/31 11:32:39;;;;;;;0.57;0.57;;;;;;;21.13;49.73;94942.97;4357090;32;20197;-64
2022/05/31 11:35:35;;;;;;;0.63;0.60;;;;;;;21.19;48.57;94951.50;4358325;32;20188;-63
2022/05/31 11:38:16;;;;;;;1.00;0.93;;;;;;;21.20;44.28;94944.97;4333263;32;20215;-65
2022/05/31 11:41:41;;;;;;;0.77;0.77;;;;;;;21.21;47.77;94944.59;4357127;32;20192;-64
2022/05/31 11:44:45;;;;;;;0.30;0.30;;;;;;;21.22;45.69;94940.75;4331603;32;20388;-65
2022/05/31 11:47:46;;;;;;;4.17;1.37;;;;;;;21.12;46.75;94941.41;4298908;32;20236;-66
2022/05/31 11:50:45;;;;;;;0.23;0.23;;;;;;;21.13;46.96;94948.34;4361092;32;20197;-64
2022/05/31 11:53:35;;;;;;;0.60;0.60;;;;;;;21.22;46.07;94948.84;4321028;32;20198;-65
2022/05/31 11:56:43;;;;;;;1.50;1.03;;;;;;;21.28;45.33;94946.59;4322739;32;20241;-64
2022/05/31 11:59:29;;;;;;;0.20;0.20;;;;;;;21.09;45.48;94946.75;4344943;32;20192;-65
2022/05/31 12:02:34;;;;;;;0.40;0.37;;;;;;;21.06;46.79;94950.97;4352438;32;20248;-64
2022/05/31 12:05:43;;;;;;;0.77;0.77;;;;;;;21.14;46.71;94949.91;4326831;32;20193;-62
2022/05/31 12:08:18;;;;;;;0.20;0.20;;;;;;;21.22;46.19;94940.75;4347964;32;20244;-65
2022/05/31 12:11:01;;;;;;;0.30;0.30;;;;;;;21.29;45.58;94944.69;4358658;32;20207;-65
2022/05/31 12:13:28;;;;;;;0.63;0.63;;;;;;;21.09;47.46;94934.03;4344098;32;20242;-63
2022/05/31 12:15:56;;;;;;;0.13;0.13;;;;;;;21.16;46.40;94936.06;4350077;32;20193;-64
2022/05/31 12:18:59;;;;;;;0.30;0.30;;;;;;;21.18;46.34;94931.84;4364653;32;20197;-63
2022/05/31 12:21:55;;;;;;;0.37;0.37;;;;;;;21.15;46.31;94926.41;4364117;32;20237;-63
2022/05/31 12:24:34;;;;;;;0.17;0.17;;;;;;;21.10;46.76;94922.13;4358653;32;20204;-64
2022/05/31 12:27:14;;;;;;;1.67;1.03;;;;;;;21.14;46.18;94928.31;4359304;32;20193;-63
2022/05/31 12:29:48;;;;;;;0.50;0.50;;;;;;;21.17;47.07;94922.19;4354490;32;20204;-63
2022/05/31 12:32:44;;;;;;;0.63;0.57;;;;;;;21.00;46.61;94936.25;4339689;32;20184;-63
2022/05/31 12:35:50;;;;;;;1.90;0.50;;;;;;;20.95;48.36;94939.31;4341970;32;20224;-63
2022/05/31 12:38:21;;;;;;;0.50;0.50;;;;;;;20.95;46.39;94939.31;4297100;33;20190;-63